Time;durP1;ratioP1;P1;durP2;ratioP2;P2;SDS_P1;SDS_P2;PMS_P1;PMS_P2;Temp;Humidity;BMP_temperature;BMP_pressure;BME280_temperature;BME280_humidity;BME280_pressure;Samples;Min_cycle;Max_cycle;Signal;HPM_P1;HPM_P2
2022/07/13 00:01:21;;;;;;;;;;;;;;;18.98;60.25;100188.81;4335403;33;20103;-92
2022/07/13 00:03:46;;;;;;;;;;;;;;;18.92;60.24;100185.69;4360106;32;19999;-92
2022/07/13 00:06:11;;;;;;;;;;;;;;;18.92;60.24;100190.94;4347667;33;19988;-91
2022/07/13 00:08:37;;;;;;;;;;;;;;;18.87;60.24;100196.50;4352587;32;20006;-91
2022/07/13 00:11:02;;;;;;;;;;;;;;;18.92;60.24;100188.31;4355817;32;20242;-93
2022/07/13 00:13:27;;;;;;;;;;;;;;;18.73;60.22;100188.56;4352332;32;19991;-91
2022/07/13 00:16:04;;;;;;;;;;;;;;;18.56;60.22;100196.56;4361414;32;20003;-93
2022/07/13 00:18:29;;;;;;;;;;;;;;;18.63;60.22;100192.66;4365235;32;19998;-92
2022/07/13 00:20:54;;;;;;;;;;;;;;;18.64;60.22;100189.09;4358417;32;21605;-91
2022/07/13 00:23:20;;;;;;;;;;;;;;;18.77;60.24;100190.09;4360920;32;20026;-92
2022/07/13 00:25:45;;;;;;;;;;;;;;;18.61;60.23;100190.09;4334614;33;20651;-92
2022/07/13 00:28:10;;;;;;;;;;;;;;;18.55;60.22;100182.53;4332959;33;19980;-92
2022/07/13 00:30:35;;;;;;;;;;;;;;;18.52;60.22;100181.88;4357264;32;20034;-93
2022/07/13 00:33:01;;;;;;;;;;;;;;;18.41;60.21;100185.97;4344491;32;20626;-93
2022/07/13 00:35:33;;;;;;;;;;;;;;;18.23;60.21;100184.41;4346099;33;20004;-92
2022/07/13 00:37:59;;;;;;;;;;;;;;;18.32;60.21;100183.03;4348543;32;20002;-92
2022/07/13 00:40:24;;;;;;;;;;;;;;;18.37;60.20;100178.31;4347834;33;20310;-92
2022/07/13 00:42:50;;;;;;;;;;;;;;;18.30;60.21;100180.47;4348062;32;20007;-92
2022/07/13 00:45:15;;;;;;;;;;;;;;;18.40;60.21;100176.34;4334989;33;20031;-92
2022/07/13 00:47:41;;;;;;;;;;;;;;;18.33;60.21;100168.91;4359966;32;19990;-92
2022/07/13 00:50:07;;;;;;;;;;;;;;;18.46;60.22;100167.28;4336500;33;20317;-89
2022/07/13 00:52:35;;;;;;;;;;;;;;;18.55;60.22;100168.53;4342734;33;20022;-91
2022/07/13 00:55:00;;;;;;;;;;;;;;;18.49;60.21;100166.25;4340461;33;19995;-92
2022/07/13 00:57:26;;;;;;;;;;;;;;;18.51;60.21;100167.00;4348640;33;20277;-93
2022/07/13 00:59:51;;;;;;;;;;;;;;;18.40;60.21;100157.06;4353322;32;20023;-92
2022/07/13 01:02:16;;;;;;;;;;;;;;;18.25;60.20;100160.59;4348316;33;21758;-92
2022/07/13 01:04:41;;;;;;;;;;;;;;;18.15;60.20;100162.03;4346698;33;20061;-91
2022/07/13 01:07:07;;;;;;;;;;;;;;;18.23;60.21;100162.47;4346616;33;20031;-91
2022/07/13 01:09:32;;;;;;;;;;;;;;;18.01;60.19;100166.31;4332587;32;20038;-93
2022/07/13 01:11:58;;;;;;;;;;;;;;;17.95;60.19;100164.00;4339640;33;20321;-91
2022/07/13 01:14:24;;;;;;;;;;;;;;;17.96;60.18;100163.06;4335938;33;20042;-91
2022/07/13 01:16:49;;;;;;;;;;;;;;;17.93;60.19;100159.75;4328021;33;19979;-91
2022/07/13 01:19:14;;;;;;;;;;;;;;;17.69;60.17;100169.84;4354771;32;20010;-91
2022/07/13 01:21:40;;;;;;;;;;;;;;;17.70;60.18;100168.94;4354117;32;20051;-92
2022/07/13 01:24:05;;;;;;;;;;;;;;;17.52;60.16;100165.50;4334728;33;20990;-90
2022/07/13 01:26:31;;;;;;;;;;;;;;;17.59;60.16;100160.75;4331925;33;20046;-92
2022/07/13 01:28:56;;;;;;;;;;;;;;;17.44;60.15;100155.37;4346777;33;19971;-91
2022/07/13 01:31:40;;;;;;;;;;;;;;;17.53;60.16;100161.09;4333955;33;20066;-92
2022/07/13 01:34:05;;;;;;;;;;;;;;;17.40;60.16;100153.84;4358632;32;20375;-92
2022/07/13 01:36:30;;;;;;;;;;;;;;;17.21;60.14;100153.09;4346701;33;19994;-92
2022/07/13 01:38:56;;;;;;;;;;;;;;;17.29;60.14;100148.31;4358984;32;20268;-93
2022/07/13 01:41:21;;;;;;;;;;;;;;;17.25;60.15;100148.53;4350954;32;20050;-92
2022/07/13 01:43:46;;;;;;;;;;;;;;;17.14;60.14;100146.47;4343988;33;20344;-92
2022/07/13 01:46:11;;;;;;;;;;;;;;;17.08;60.14;100147.66;4340412;33;20038;-92
2022/07/13 01:48:37;;;;;;;;;;;;;;;17.12;60.14;100150.97;4342435;33;19979;-92
2022/07/13 01:51:02;;;;;;;;;;;;;;;17.17;60.15;100147.16;4361440;32;19983;-92
2022/07/13 01:53:27;;;;;;;;;;;;;;;17.17;60.15;100135.78;4337062;33;20007;-92
2022/07/13 01:55:52;;;;;;;;;;;;;;;17.15;60.15;100135.03;4346812;33;20027;-93
2022/07/13 01:58:18;;;;;;;;;;;;;;;16.97;60.13;100143.88;4344131;33;20280;-92
2022/07/13 02:00:43;;;;;;;;;;;;;;;16.77;60.13;100142.25;4362792;32;19986;-92
2022/07/13 02:03:09;;;;;;;;;;;;;;;16.94;60.13;100141.41;4350981;32;20009;-92
2022/07/13 02:05:34;;;;;;;;;;;;;;;16.75;60.12;100138.87;4348763;33;19995;-91
2022/07/13 02:07:59;;;;;;;;;;;;;;;16.70;60.12;100138.25;4346088;33;20396;-92
2022/07/13 02:10:34;;;;;;;;;;;;;;;16.73;60.12;100140.72;4333223;33;20063;-92
2022/07/13 02:13:00;;;;;;;;;;;;;;;16.57;60.11;100145.91;4336751;33;20017;-91
2022/07/13 02:15:25;;;;;;;;;;;;;;;16.58;60.11;100139.72;4348021;33;19987;-91
2022/07/13 02:17:50;;;;;;;;;;;;;;;16.52;60.10;100146.09;4348078;33;20309;-92
2022/07/13 02:20:16;;;;;;;;;;;;;;;16.37;60.09;100149.50;4347786;33;20007;-91
2022/07/13 02:22:49;;;;;;;;;;;;;;;16.30;60.09;100149.88;4334710;33;20039;-91
2022/07/13 02:25:15;;;;;;;;;;;;;;;16.41;60.10;100143.19;4347438;32;19983;-92
2022/07/13 02:27:40;;;;;;;;;;;;;;;16.47;60.10;100145.50;4347712;32;20042;-91
2022/07/13 02:30:06;;;;;;;;;;;;;;;16.44;60.10;100142.16;4356151;32;20088;-92
2022/07/13 02:32:31;;;;;;;;;;;;;;;16.37;60.09;100141.63;4338830;33;20069;-92
2022/07/13 02:34:56;;;;;;;;;;;;;;;16.32;60.10;100140.12;4348122;33;20051;-92
2022/07/13 02:37:21;;;;;;;;;;;;;;;16.34;60.10;100143.56;4360521;32;20063;-92
2022/07/13 02:39:47;;;;;;;;;;;;;;;16.45;60.10;100142.09;4348313;33;20002;-92
2022/07/13 02:42:12;;;;;;;;;;;;;;;16.43;60.10;100146.56;4347470;33;20019;-92
2022/07/13 02:44:55;;;;;;;;;;;;;;;16.31;60.09;100141.06;4335583;33;19987;-92
2022/07/13 02:47:21;;;;;;;;;;;;;;;16.36;60.09;100141.72;4348510;32;20044;-91
2022/07/13 02:49:46;;;;;;;;;;;;;;;16.45;60.10;100138.63;4345404;33;19980;-91
2022/07/13 02:52:11;;;;;;;;;;;;;;;16.14;60.08;100141.91;4325987;33;20022;-92
2022/07/13 02:54:36;;;;;;;;;;;;;;;16.23;60.10;100139.66;4335816;33;20014;-93
2022/07/13 02:57:01;;;;;;;;;;;;;;;16.18;60.09;100135.56;4347774;33;20387;-91
2022/07/13 02:59:30;;;;;;;;;;;;;;;16.24;60.10;100140.53;4343909;33;20046;-90
2022/07/13 03:01:55;;;;;;;;;;;;;;;16.20;60.09;100144.22;4334003;33;20317;-90
2022/07/13 03:04:21;;;;;;;;;;;;;;;16.18;60.09;100143.44;4332103;33;20038;-91
2022/07/13 03:06:46;;;;;;;;;;;;;;;16.28;60.09;100140.28;4335369;33;20014;-90
2022/07/13 03:09:12;;;;;;;;;;;;;;;16.01;60.08;100143.41;4346002;32;20095;-90
2022/07/13 03:11:37;;;;;;;;;;;;;;;16.06;60.08;100138.78;4338268;33;20321;-91
2022/07/13 03:14:02;;;;;;;;;;;;;;;16.06;60.08;100138.78;4347181;33;19998;-91
2022/07/13 03:16:28;;;;;;;;;;;;;;;15.82;60.07;100144.28;4347033;32;20011;-92
2022/07/13 03:18:54;;;;;;;;;;;;;;;16.03;60.08;100152.06;4359631;32;19987;-91
2022/07/13 03:21:19;;;;;;;;;;;;;;;16.00;60.07;100139.09;4334595;33;20014;-91
2022/07/13 03:23:44;;;;;;;;;;;;;;;15.90;60.07;100139.53;4346808;33;20310;-91
2022/07/13 03:26:11;;;;;;;;;;;;;;;15.86;60.07;100142.37;4346625;33;20026;-91
2022/07/13 03:28:36;;;;;;;;;;;;;;;15.91;60.07;100140.38;4343626;33;20022;-91
2022/07/13 03:31:01;;;;;;;;;;;;;;;15.95;60.08;100144.56;4332222;33;19987;-90
2022/07/13 03:33:27;;;;;;;;;;;;;;;15.98;60.07;100149.66;4343165;33;20617;-90
2022/07/13 03:35:52;;;;;;;;;;;;;;;15.92;60.07;100149.97;4359347;32;20025;-90
2022/07/13 03:38:17;;;;;;;;;;;;;;;15.93;60.08;100149.03;4359392;32;20118;-91
2022/07/13 03:40:42;;;;;;;;;;;;;;;15.98;60.07;100149.66;4353009;33;20014;-90
2022/07/13 03:43:08;;;;;;;;;;;;;;;16.08;60.09;100150.91;4359942;32;20235;-91
2022/07/13 03:45:33;;;;;;;;;;;;;;;16.08;60.09;100152.69;4359838;32;20015;-91
2022/07/13 03:47:58;;;;;;;;;;;;;;;16.10;60.08;100145.63;4347447;33;19988;-91
2022/07/13 03:50:23;;;;;;;;;;;;;;;16.14;60.08;100150.62;4347680;33;20038;-91
2022/07/13 03:52:51;;;;;;;;;;;;;;;16.49;60.10;100142.78;4347585;33;20276;-91
2022/07/13 03:55:18;;;;;;;;;;;;;;;16.25;60.09;100150.09;4347274;33;20336;-91
2022/07/13 03:57:43;;;;;;;;;;;;;;;16.38;60.10;100153.84;4345704;33;20006;-91
2022/07/13 04:00:09;;;;;;;;;;;;;;;16.55;60.11;100155.59;4340585;33;20313;-90
2022/07/13 04:02:34;;;;;;;;;;;;;;;16.74;60.11;100151.16;4359486;32;19983;-90
2022/07/13 04:04:59;;;;;;;;;;;;;;;16.59;60.11;100157.19;4359798;32;20023;-90
2022/07/13 04:07:24;;;;;;;;;;;;;;;16.69;60.10;100154.97;4347901;33;20031;-91
2022/07/13 04:09:50;;;;;;;;;;;;;;;16.85;60.13;100151.47;4360572;32;20003;-91
2022/07/13 04:12:21;;;;;;;;;;;;;;;16.94;60.13;100146.66;4348358;33;20026;-94
2022/07/13 04:14:47;;;;;;;;;;;;;;;17.12;60.13;100138.66;4348967;33;20010;-94
2022/07/13 04:17:12;;;;;;;;;;;;;;;17.18;60.14;100135.72;4348327;32;20344;-91
2022/07/13 04:19:37;;;;;;;;;;;;;;;17.40;60.15;100132.78;4348013;33;20010;-92
2022/07/13 04:22:02;;;;;;;;;;;;;;;17.55;60.16;100131.09;4352291;32;20028;-89
2022/07/13 04:24:28;;;;;;;;;;;;;;;17.58;60.15;100128.31;4356882;32;19987;-89
2022/07/13 04:26:53;;;;;;;;;;;;;;;17.84;60.18;100124.25;4346924;33;20055;-90
2022/07/13 04:29:18;;;;;;;;;;;;;;;17.90;60.17;100129.19;4359639;32;20357;-88
2022/07/13 04:31:43;;;;;;;;;;;;;;;18.06;60.18;100135.28;4359166;32;20011;-90
2022/07/13 04:34:09;;;;;;;;;;;;;;;18.37;60.19;100133.53;4351045;32;19979;-92
2022/07/13 04:36:34;;;;;;;;;;;;;;;18.51;60.21;100128.31;4346224;33;20384;-90
2022/07/13 04:38:59;;;;;;;;;;;;;;;18.55;60.21;100126.34;4348184;33;20034;-88
2022/07/13 04:41:24;;;;;;;;;;;;;;;18.83;60.22;100133.47;4359156;32;19976;-89
2022/07/13 04:43:50;;;;;;;;;;;;;;;18.90;60.23;100125.09;4347609;33;19976;-90
2022/07/13 04:46:15;;;;;;;;;;;;;;;19.02;60.24;100126.16;4345876;33;20022;-89
2022/07/13 04:48:41;;;;;;;;;;;;;;;19.17;60.24;100117.31;4359012;32;19995;-89
2022/07/13 04:51:06;;;;;;;;;;;;;;;19.39;60.26;100116.81;4358985;32;20006;-89
2022/07/13 04:53:31;;;;;;;;;;;;;;;19.55;60.26;100130.78;4346622;33;20391;-89
2022/07/13 04:55:56;;;;;;;;;;;;;;;19.50;60.26;100124.91;4359004;32;20006;-88
2022/07/13 04:58:22;;;;;;;;;;;;;;;19.63;60.27;100125.00;4346151;33;20046;-89
2022/07/13 05:00:47;;;;;;;;;;;;;;;19.75;60.27;100126.88;4346668;33;19976;-88
2022/07/13 05:03:13;;;;;;;;;;;;;;;19.76;60.28;100123.28;4346501;33;20649;-89
2022/07/13 05:05:38;;;;;;;;;;;;;;;19.84;60.27;100123.62;4336107;33;20261;-90
2022/07/13 05:08:03;;;;;;;;;;;;;;;19.91;60.28;100132.03;4346699;33;20003;-90
2022/07/13 05:10:29;;;;;;;;;;;;;;;20.08;60.29;100125.66;4346700;33;20007;-89
2022/07/13 05:12:54;;;;;;;;;;;;;;;20.11;60.29;100126.31;4347331;33;20022;-89
2022/07/13 05:15:19;;;;;;;;;;;;;;;20.18;60.30;100117.03;4347871;33;20009;-90
2022/07/13 05:17:45;;;;;;;;;;;;;;;20.22;60.29;100123.81;4346226;33;20909;-89
2022/07/13 05:20:10;;;;;;;;;;;;;;;20.27;60.30;100127.94;4360170;32;19975;-90
2022/07/13 05:22:35;;;;;;;;;;;;;;;20.21;60.29;100126.53;4349586;32;20335;-89
2022/07/13 05:25:00;;;;;;;;;;;;;;;20.27;60.30;100126.13;4359352;32;19991;-90
2022/07/13 05:27:26;;;;;;;;;;;;;;;20.50;60.31;100133.41;4346627;33;20007;-90
2022/07/13 05:29:51;;;;;;;;;;;;;;;20.71;60.33;100123.19;4346808;33;19983;-90
2022/07/13 05:32:16;;;;;;;;;;;;;;;20.84;60.33;100123.22;4345842;33;19990;-90
2022/07/13 05:34:42;;;;;;;;;;;;;;;20.88;60.34;100119.41;4346269;32;20082;-89
2022/07/13 05:37:07;;;;;;;;;;;;;;;20.93;60.33;100134.97;4340849;33;20029;-90
2022/07/13 05:39:32;;;;;;;;;;;;;;;20.76;60.33;100125.53;4341030;33;21867;-90
2022/07/13 05:41:58;;;;;;;;;;;;;;;20.92;60.33;100125.31;4358300;32;19967;-91
2022/07/13 05:44:23;;;;;;;;;;;;;;;20.98;60.34;100130.19;4345951;32;20019;-91
2022/07/13 05:46:48;;;;;;;;;;;;;;;21.10;60.35;100130.19;4345986;33;19992;-89
2022/07/13 05:49:13;;;;;;;;;;;;;;;21.08;60.34;100131.25;4346265;33;20059;-90
2022/07/13 05:51:38;;;;;;;;;;;;;;;20.93;60.33;100137.59;4345865;33;20286;-90
2022/07/13 05:54:04;;;;;;;;;;;;;;;21.08;60.34;100126.81;4345869;33;19987;-89
2022/07/13 05:56:30;;;;;;;;;;;;;;;21.30;60.36;100135.94;4346319;33;19995;-90
2022/07/13 05:58:55;;;;;;;;;;;;;;;21.25;60.36;100135.41;4345996;33;19983;-91
2022/07/13 06:01:21;;;;;;;;;;;;;;;21.28;60.35;100130.72;4358547;32;20306;-89
2022/07/13 06:03:46;;;;;;;;;;;;;;;21.39;60.37;100124.69;4345557;33;19995;-89
2022/07/13 06:06:11;;;;;;;;;;;;;;;21.38;60.37;100134.44;4346057;33;20023;-90
2022/07/13 06:08:36;;;;;;;;;;;;;;;21.52;60.37;100122.00;4345891;33;19971;-90
2022/07/13 06:11:02;;;;;;;;;;;;;;;21.48;60.37;100129.31;4345806;32;20300;-90
2022/07/13 06:13:27;;;;;;;;;;;;;;;21.74;60.38;100117.69;4358218;32;19999;-90
2022/07/13 06:15:52;;;;;;;;;;;;;;;22.03;60.40;100122.69;4345585;33;19988;-90
2022/07/13 06:18:17;;;;;;;;;;;;;;;22.25;60.41;100125.50;4358364;32;20381;-89
2022/07/13 06:20:43;;;;;;;;;;;;;;;22.46;60.41;100122.16;4345803;33;20014;-90
2022/07/13 06:23:11;;;;;;;;;;;;;;;22.51;60.42;100117.38;4345224;33;21101;-90
2022/07/13 06:25:37;;;;;;;;;;;;;;;22.42;60.42;100116.25;4357771;32;19992;-90
2022/07/13 06:28:02;;;;;;;;;;;;;;;22.23;60.40;100127.38;4345442;32;20029;-89
2022/07/13 06:30:27;;;;;;;;;;;;;;;22.21;60.41;100129.31;4345575;33;19983;-91
2022/07/13 06:32:52;;;;;;;;;;;;;;;22.19;60.41;100125.09;4345357;33;20257;-90
2022/07/13 06:35:18;;;;;;;;;;;;;;;22.23;60.41;100123.88;4345529;33;20011;-90
2022/07/13 06:37:43;;;;;;;;;;;;;;;22.24;60.40;100130.88;4359125;32;23385;-91
2022/07/13 06:40:09;;;;;;;;;;;;;;;22.39;60.41;100128.91;4359959;32;20511;-90
2022/07/13 06:42:34;;;;;;;;;;;;;;;22.45;60.42;100129.28;4347390;32;20026;-89
2022/07/13 06:44:59;;;;;;;;;;;;;;;22.57;60.43;100128.37;4348291;33;20285;-89
2022/07/13 06:47:24;;;;;;;;;;;;;;;22.73;60.44;100125.41;4348798;33;19975;-90
2022/07/13 06:49:49;;;;;;;;;;;;;;;23.16;60.46;100130.06;4347406;33;19990;-89
2022/07/13 06:52:15;;;;;;;;;;;;;;;23.58;60.48;100126.69;4347348;33;20376;-90
2022/07/13 06:54:40;;;;;;;;;;;;;;;23.83;60.49;100128.22;4347260;33;20290;-90
2022/07/13 06:57:06;;;;;;;;;;;;;;;24.01;60.50;100131.22;4347395;33;19983;-89
2022/07/13 06:59:31;;;;;;;;;;;;;;;24.16;60.50;100131.78;4367702;32;19983;-89
2022/07/13 07:01:56;;;;;;;;;;;;;;;24.25;60.51;100132.81;4359607;32;19984;-89
2022/07/13 07:04:21;;;;;;;;;;;;;;;24.16;60.50;100131.78;4359561;32;20155;-90
2022/07/13 07:06:47;;;;;;;;;;;;;;;24.32;60.52;100123.38;4359811;32;19986;-89
2022/07/13 07:09:12;;;;;;;;;;;;;;;24.22;60.51;100125.94;4346769;33;22809;-90
2022/07/13 07:11:37;;;;;;;;;;;;;;;24.10;60.51;100130.44;4359556;32;20310;-89
2022/07/13 07:14:03;;;;;;;;;;;;;;;24.20;60.51;100122.56;4359858;32;19991;-89
2022/07/13 07:16:28;;;;;;;;;;;;;;;24.62;60.53;100123.50;4359660;32;19987;-89
2022/07/13 07:18:53;;;;;;;;;;;;;;;24.95;60.55;100118.94;4348355;33;19994;-89
2022/07/13 07:21:18;;;;;;;;;;;;;;;25.14;60.56;100121.72;4348566;33;20007;-89
2022/07/13 07:23:43;;;;;;;;;;;;;;;25.34;60.57;100120.84;4359711;32;20015;-89
2022/07/13 07:26:09;;;;;;;;;;;;;;;25.37;60.57;100112.56;4359578;32;19975;-88
2022/07/13 07:28:34;;;;;;;;;;;;;;;25.45;60.58;100116.38;4359518;32;20313;-88
2022/07/13 07:30:59;;;;;;;;;;;;;;;25.24;60.56;100109.28;4347085;33;20011;-88
2022/07/13 07:33:24;;;;;;;;;;;;;;;25.21;60.56;100106.03;4347028;33;20349;-88
2022/07/13 07:35:50;;;;;;;;;;;;;;;25.24;60.56;100101.28;4359539;32;19998;-88
2022/07/13 07:38:15;;;;;;;;;;;;;;;25.46;60.58;100091.41;4359293;32;20314;-89
2022/07/13 07:40:40;;;;;;;;;;;;;;;25.83;60.59;100089.84;4359451;32;20245;-89
2022/07/13 07:43:05;;;;;;;;;;;;;;;26.08;60.61;100090.28;4359215;32;20003;-89
2022/07/13 07:45:31;;;;;;;;;;;;;;;26.08;60.61;100085.78;4359368;32;19987;-89
2022/07/13 07:47:56;;;;;;;;;;;;;;;26.06;60.60;100081.59;4359234;32;19967;-89
2022/07/13 07:50:21;;;;;;;;;;;;;;;26.13;60.61;100086.22;4347050;33;20282;-89
2022/07/13 07:52:46;;;;;;;;;;;;;;;25.97;60.60;100085.91;4348386;33;19979;-89
2022/07/13 07:55:12;;;;;;;;;;;;;;;26.26;60.62;100093.91;4348222;33;20365;-88
2022/07/13 07:57:44;;;;;;;;;;;;;;;25.98;60.60;100100.94;4348361;33;20047;-88
2022/07/13 08:00:09;;;;;;;;;;;;;;;26.14;60.60;100100.41;4359289;32;20038;-89
2022/07/13 08:02:34;;;;;;;;;;;;;;;26.22;60.61;100097.84;4348444;33;20026;-88
2022/07/13 08:05:00;;;;;;;;;;;;;;;26.55;60.64;100081.44;4359042;32;20309;-88
2022/07/13 08:07:25;;;;;;;;;;;;;;;26.70;60.64;100080.97;4347774;33;21495;-89
2022/07/13 08:09:50;;;;;;;;;;;;;;;26.74;60.64;100082.38;4359335;32;19996;-89
2022/07/13 08:12:16;;;;;;;;;;;;;;;26.58;60.63;100081.16;4359187;32;20011;-88
2022/07/13 08:14:41;;;;;;;;;;;;;;;26.81;60.65;100078.16;4359323;32;20014;-88
2022/07/13 08:17:06;;;;;;;;;;;;;;;26.74;60.64;100056.53;4359039;32;20381;-88
2022/07/13 08:19:31;;;;;;;;;;;;;;;26.88;60.65;100068.56;4346542;33;20741;-89
2022/07/13 08:21:57;;;;;;;;;;;;;;;27.01;60.65;100058.44;4348357;33;20306;-88
2022/07/13 08:24:22;;;;;;;;;;;;;;;27.25;60.67;100092.66;4359469;32;20025;-88
2022/07/13 08:26:47;;;;;;;;;;;;;;;27.50;60.67;100069.72;4359273;32;20039;-88
2022/07/13 08:29:13;;;;;;;;;;;;;;;27.58;60.69;100068.97;4359402;32;19991;-88
2022/07/13 08:31:39;;;;;;;;;;;;;;;27.42;60.68;100057.06;4348322;33;19999;-88
2022/07/13 08:39:32;;;;;;;;;;;;;;;27.95;60.70;100056.34;4353526;33;20006;-89
2022/07/13 08:42:00;;;;;;;;;;;;;;;28.05;60.72;100050.91;4359180;32;20321;-89
2022/07/13 08:44:25;;;;;;;;;;;;;;;28.17;60.71;100054.19;4348076;33;20347;-88
2022/07/13 08:46:51;;;;;;;;;;;;;;;28.33;60.72;100047.16;4359136;32;19975;-88
2022/07/13 08:49:16;;;;;;;;;;;;;;;28.24;60.72;100036.50;4346170;33;23714;-88
2022/07/13 08:51:43;;;;;;;;;;;;;;;28.38;60.73;100046.69;4347950;33;19998;-88
2022/07/13 08:54:08;;;;;;;;;;;;;;;28.42;60.73;100035.53;4358906;32;19968;-89
2022/07/13 08:56:34;;;;;;;;;;;;;;;28.55;60.74;100036.94;4347911;33;20277;-89
2022/07/13 08:58:59;;;;;;;;;;;;;;;28.65;60.74;100035.84;4347129;33;20015;-89
2022/07/13 09:01:25;;;;;;;;;;;;;;;28.51;60.73;100032.91;4359108;32;20048;-89
2022/07/13 09:03:51;;;;;;;;;;;;;;;28.59;60.74;100035.62;4358929;32;19984;-89
2022/07/13 09:06:35;;;;;;;;;;;;;;;28.82;60.75;100028.72;4347832;33;19979;-89
2022/07/13 09:09:00;;;;;;;;;;;;;;;29.06;60.76;100029.88;4348184;33;20068;-88
2022/07/13 09:11:25;;;;;;;;;;;;;;;29.27;60.77;100017.72;4359149;32;19995;-89
2022/07/13 09:13:51;;;;;;;;;;;;;;;28.99;60.77;100019.78;4359035;32;19998;-88
2022/07/13 09:16:19;;;;;;;;;;;;;;;28.97;60.75;100023.66;4359102;32;20014;-88
2022/07/13 09:19:05;;;;;;;;;;;;;;;29.04;60.76;100017.47;4347772;33;20349;-89
2022/07/13 09:21:30;;;;;;;;;;;;;;;29.06;60.76;100009.25;4333798;33;20000;-88
2022/07/13 09:24:02;;;;;;;;;;;;;;;29.13;60.76;100006.81;4346481;33;20024;-88
2022/07/13 09:26:43;;;;;;;;;;;;;;;29.09;60.76;100014.28;4346244;32;20002;-89
2022/07/13 09:29:11;;;;;;;;;;;;;;;29.20;60.77;100018.53;4358792;32;20010;-88
2022/07/13 09:31:50;;;;;;;;;;;;;;;29.04;60.76;100004.06;4346087;33;20189;-89
2022/07/13 09:34:15;;;;;;;;;;;;;;;29.01;60.77;100022.31;4347831;33;20084;-89
2022/07/13 09:36:40;;;;;;;;;;;;;;;29.04;60.76;100019.31;4358750;32;20331;-89
2022/07/13 09:39:12;;;;;;;;;;;;;;;29.17;60.77;100013.50;4346122;33;20042;-89
2022/07/13 09:41:37;;;;;;;;;;;;;;;29.20;60.77;100008.66;4345731;33;20070;-89
2022/07/13 09:46:56;;;;;;;;;;;;;;;29.27;60.77;100025.75;4347445;33;19998;-89
2022/07/13 09:49:29;;;;;;;;;;;;;;;29.09;60.77;100022.34;4358499;32;20000;-90
2022/07/13 09:51:57;;;;;;;;;;;;;;;29.26;60.78;100023.25;4345948;32;20044;-89
2022/07/13 09:54:22;;;;;;;;;;;;;;;29.47;60.79;100014.78;4347316;33;20037;-90
2022/07/13 09:56:49;;;;;;;;;;;;;;;29.54;60.78;100002.41;4358339;32;19988;-89
2022/07/13 09:59:14;;;;;;;;;;;;;;;29.48;60.79;100020.00;4358285;32;19991;-89
2022/07/13 10:01:39;;;;;;;;;;;;;;;29.51;60.79;100011.62;4345877;33;20042;-88
2022/07/13 10:04:05;;;;;;;;;;;;;;;29.72;60.80;99994.22;4358002;32;19983;-88
2022/07/13 10:06:30;;;;;;;;;;;;;;;29.78;60.80;100001.59;4358324;32;19999;-88
2022/07/13 10:08:55;;;;;;;;;;;;;;;29.72;60.79;100005.78;4358114;32;19999;-88
2022/07/13 10:11:20;;;;;;;;;;;;;;;29.73;60.80;100009.31;4358580;32;20004;-88
2022/07/13 10:13:46;;;;;;;;;;;;;;;29.86;60.80;99998.94;4347874;33;19980;-87
2022/07/13 10:16:11;;;;;;;;;;;;;;;29.86;60.80;99996.25;4349204;33;19979;-88
2022/07/13 10:18:39;;;;;;;;;;;;;;;30.02;60.81;100003.44;4362975;32;20023;-88
2022/07/13 10:21:08;;;;;;;;;;;;;;;29.90;60.81;100000.28;4349935;33;20337;-88
2022/07/13 10:23:34;;;;;;;;;;;;;;;29.88;60.81;99999.59;4360299;32;19983;-89
2022/07/13 10:26:00;;;;;;;;;;;;;;;29.79;60.81;100008.62;4360010;32;19999;-88
2022/07/13 10:28:25;;;;;;;;;;;;;;;29.71;60.79;100000.59;4360119;32;20372;-88
2022/07/13 10:30:51;;;;;;;;;;;;;;;29.87;60.81;99993.41;4359767;32;20277;-89
2022/07/13 10:33:16;;;;;;;;;;;;;;;29.85;60.80;99987.38;4348532;33;19976;-89
2022/07/13 10:35:49;;;;;;;;;;;;;;;29.95;60.82;99993.37;4349106;33;20007;-89
2022/07/13 10:38:15;;;;;;;;;;;;;;;29.70;60.79;99988.19;4348871;33;20014;-87
2022/07/13 10:40:40;;;;;;;;;;;;;;;29.93;60.81;99998.09;4360090;32;19999;-89
2022/07/13 10:43:05;;;;;;;;;;;;;;;30.20;60.83;99990.72;4359981;32;20067;-89
2022/07/13 10:47:59;;;;;;;;;;;;;;;30.32;60.83;99972.44;4348992;33;19987;-88
2022/07/13 10:50:26;;;;;;;;;;;;;;;30.45;60.84;99984.31;4359878;32;20013;-88
2022/07/13 10:52:51;;;;;;;;;;;;;;;30.45;60.84;99961.97;4348794;33;19991;-89
2022/07/13 10:55:16;;;;;;;;;;;;;;;30.61;60.85;99982.62;4359875;32;19975;-89
2022/07/13 10:57:42;;;;;;;;;;;;;;;30.70;60.85;99982.41;4348897;33;19976;-88
2022/07/13 11:00:24;;;;;;;;;;;;;;;30.41;60.83;99972.22;4359818;32;20034;-88
2022/07/13 11:03:00;;;;;;;;;;;;;;;30.63;60.84;99969.84;4359734;32;20361;-88
2022/07/13 11:05:29;;;;;;;;;;;;;;;30.82;60.86;99972.97;4348655;33;19988;-88
2022/07/13 11:07:54;;;;;;;;;;;;;;;30.96;60.86;99982.16;4359538;32;20047;-88
2022/07/13 11:10:23;;;;;;;;;;;;;;;30.66;60.85;99981.09;4359753;32;19987;-88
2022/07/13 11:13:04;;;;;;;;;;;;;;;30.76;60.85;99978.22;4359719;32;19980;-88
2022/07/13 11:15:49;;;;;;;;;;;;;;;30.96;60.86;99974.09;4359627;32;19979;-89
2022/07/13 11:18:23;;;;;;;;;;;;;;;30.93;60.86;99974.44;4348671;33;19980;-88
2022/07/13 11:20:56;;;;;;;;;;;;;;;30.93;60.86;99973.59;4359859;32;19995;-88
2022/07/13 11:26:07;;;;;;;;;;;;;;;30.89;60.85;99969.59;4357912;32;19982;-88
2022/07/13 11:28:34;;;;;;;;;;;;;;;31.09;60.87;99974.38;4359720;32;20296;-88
2022/07/13 11:31:00;;;;;;;;;;;;;;;31.09;60.87;99970.84;4359806;32;20000;-89
2022/07/13 11:33:26;;;;;;;;;;;;;;;30.96;60.86;99979.47;4359540;32;20361;-89
2022/07/13 11:35:51;;;;;;;;;;;;;;;30.68;60.85;99959.41;4359653;32;19971;-88
2022/07/13 11:38:17;;;;;;;;;;;;;;;30.69;60.85;99955.72;4359079;32;22535;-89
2022/07/13 11:40:42;;;;;;;;;;;;;;;30.85;60.86;99953.81;4348471;33;19988;-88
2022/07/13 11:43:07;;;;;;;;;;;;;;;30.87;60.86;99950.94;4359617;32;20039;-89
2022/07/13 11:45:33;;;;;;;;;;;;;;;30.85;60.86;99940.37;4348368;33;20000;-88
2022/07/13 11:48:03;;;;;;;;;;;;;;;30.66;60.85;99940.78;4347325;33;20797;-88
2022/07/13 11:50:38;;;;;;;;;;;;;;;31.03;60.87;99950.03;4348564;33;20000;-88
2022/07/13 11:53:03;;;;;;;;;;;;;;;31.25;60.88;99948.44;4348345;33;19988;-89
2022/07/13 11:55:29;;;;;;;;;;;;;;;31.04;60.86;99930.22;4360798;32;23674;-88
2022/07/13 11:57:54;;;;;;;;;;;;;;;31.07;60.87;99940.59;4360424;32;20000;-89
2022/07/13 12:00:19;;;;;;;;;;;;;;;30.99;60.87;99929.88;4363630;32;19984;-89
2022/07/13 12:02:49;;;;;;;;;;;;;;;31.28;60.87;99940.00;4348572;33;24226;-89
2022/07/13 12:05:21;;;;;;;;;;;;;;;31.40;60.89;99928.66;4359369;32;20014;-90
2022/07/13 12:07:47;;;;;;;;;;;;;;;31.32;60.88;99928.72;4359447;32;20002;-88
2022/07/13 12:10:12;;;;;;;;;;;;;;;31.32;60.88;99927.88;4359320;32;20011;-89
2022/07/13 12:12:40;;;;;;;;;;;;;;;31.36;60.88;99932.72;4358859;32;22447;-88
2022/07/13 12:15:05;;;;;;;;;;;;;;;31.10;60.87;99918.75;4359226;32;19975;-88
2022/07/13 12:17:40;;;;;;;;;;;;;;;31.02;60.86;99916.94;4359251;32;20245;-88
2022/07/13 12:20:14;;;;;;;;;;;;;;;31.10;60.87;99916.06;4347013;32;20041;-89
2022/07/13 12:22:39;;;;;;;;;;;;;;;31.49;60.89;99924.06;4359329;32;19959;-89
2022/07/13 12:25:05;;;;;;;;;;;;;;;31.54;60.88;99920.84;4347918;33;20903;-89
2022/07/13 12:27:31;;;;;;;;;;;;;;;31.54;60.88;99929.75;4347025;32;19999;-89
2022/07/13 12:30:09;;;;;;;;;;;;;;;31.56;60.90;99918.78;4346912;32;19995;-88
2022/07/13 12:33:14;;;;;;;;;;;;;;;31.65;60.90;99921.22;4359209;32;19998;-88
2022/07/13 12:35:40;;;;;;;;;;;;;;;31.64;60.89;99922.25;4318327;33;19979;-88
2022/07/13 12:38:08;;;;;;;;;;;;;;;31.59;60.89;99940.78;4319057;33;20326;-89
2022/07/13 12:40:37;;;;;;;;;;;;;;;31.64;60.90;99932.16;4339520;33;20451;-89
2022/07/13 12:43:03;;;;;;;;;;;;;;;31.50;60.89;99922.22;4349152;33;19995;-88
2022/07/13 12:45:31;;;;;;;;;;;;;;;31.65;60.89;99915.00;4349099;33;19983;-90
2022/07/13 12:47:56;;;;;;;;;;;;;;;31.72;60.90;99910.63;4359464;32;20053;-89